sensor_id;sensor_type;location;lat;lon;timestamp;P1;durP1;ratioP1;P2;durP2;ratioP2
9465;SDS011;4771;48.726;9.006;2022-11-20T00:01:05;4.43;;;3.83;;
9465;SDS011;4771;48.726;9.006;2022-11-20T00:03:34;4.43;;;3.50;;
9465;SDS011;4771;48.726;9.006;2022-11-20T00:06:01;5.87;;;3.80;;
9465;SDS011;4771;48.726;9.006;2022-11-20T00:08:28;4.67;;;3.77;;
9465;SDS011;4771;48.726;9.006;2022-11-20T00:10:55;4.90;;;3.90;;
9465;SDS011;4771;48.726;9.006;2022-11-20T00:13:22;7.40;;;4.30;;
9465;SDS011;4771;48.726;9.006;2022-11-20T00:15:57;4.77;;;3.93;;
9465;SDS011;4771;48.726;9.006;2022-11-20T00:18:24;5.50;;;4.20;;
9465;SDS011;4771;48.726;9.006;2022-11-20T00:20:52;5.50;;;3.77;;
9465;SDS011;4771;48.726;9.006;2022-11-20T00:23:19;6.40;;;4.03;;
9465;SDS011;4771;48.726;9.006;2022-11-20T00:25:46;4.83;;;4.20;;
9465;SDS011;4771;48.726;9.006;2022-11-20T00:28:13;4.70;;;4.17;;
9465;SDS011;4771;48.726;9.006;2022-11-20T00:30:40;5.13;;;3.90;;
9465;SDS011;4771;48.726;9.006;2022-11-20T00:33:08;4.93;;;4.13;;
9465;SDS011;4771;48.726;9.006;2022-11-20T00:35:35;4.57;;;3.87;;
9465;SDS011;4771;48.726;9.006;2022-11-20T00:38:01;5.30;;;4.23;;
9465;SDS011;4771;48.726;9.006;2022-11-20T00:40:28;5.00;;;4.30;;
9465;SDS011;4771;48.726;9.006;2022-11-20T00:42:55;4.27;;;3.87;;
9465;SDS011;4771;48.726;9.006;2022-11-20T00:45:22;4.57;;;4.03;;
9465;SDS011;4771;48.726;9.006;2022-11-20T00:47:49;5.00;;;3.80;;
9465;SDS011;4771;48.726;9.006;2022-11-20T00:50:17;5.83;;;3.57;;
9465;SDS011;4771;48.726;9.006;2022-11-20T00:52:44;4.70;;;3.83;;
9465;SDS011;4771;48.726;9.006;2022-11-20T00:55:11;5.27;;;4.00;;
9465;SDS011;4771;48.726;9.006;2022-11-20T00:57:38;5.03;;;3.60;;
9465;SDS011;4771;48.726;9.006;2022-11-20T01:00:05;4.33;;;3.83;;
9465;SDS011;4771;48.726;9.006;2022-11-20T01:02:33;6.20;;;4.10;;
9465;SDS011;4771;48.726;9.006;2022-11-20T01:04:59;5.67;;;4.07;;
9465;SDS011;4771;48.726;9.006;2022-11-20T01:07:28;7.93;;;3.87;;
9465;SDS011;4771;48.726;9.006;2022-11-20T01:09:55;6.13;;;3.90;;
9465;SDS011;4771;48.726;9.006;2022-11-20T01:12:22;6.30;;;3.97;;
9465;SDS011;4771;48.726;9.006;2022-11-20T01:14:49;5.43;;;4.40;;
9465;SDS011;4771;48.726;9.006;2022-11-20T01:17:16;4.57;;;3.90;;
9465;SDS011;4771;48.726;9.006;2022-11-20T01:19:43;4.47;;;4.07;;
9465;SDS011;4771;48.726;9.006;2022-11-20T01:22:10;6.20;;;4.10;;
9465;SDS011;4771;48.726;9.006;2022-11-20T01:24:38;4.87;;;4.13;;
9465;SDS011;4771;48.726;9.006;2022-11-20T01:27:05;5.43;;;4.23;;
9465;SDS011;4771;48.726;9.006;2022-11-20T01:29:32;4.47;;;4.07;;
9465;SDS011;4771;48.726;9.006;2022-11-20T01:31:59;4.83;;;4.33;;
9465;SDS011;4771;48.726;9.006;2022-11-20T01:34:25;4.90;;;4.30;;
9465;SDS011;4771;48.726;9.006;2022-11-20T01:36:52;5.70;;;4.07;;
9465;SDS011;4771;48.726;9.006;2022-11-20T01:39:20;6.97;;;4.27;;
9465;SDS011;4771;48.726;9.006;2022-11-20T01:41:50;5.60;;;4.13;;
9465;SDS011;4771;48.726;9.006;2022-11-20T01:44:49;4.63;;;4.00;;
9465;SDS011;4771;48.726;9.006;2022-11-20T01:47:20;5.77;;;4.20;;
9465;SDS011;4771;48.726;9.006;2022-11-20T01:49:51;5.30;;;4.30;;
9465;SDS011;4771;48.726;9.006;2022-11-20T01:52:23;5.03;;;4.00;;
9465;SDS011;4771;48.726;9.006;2022-11-20T01:54:54;5.83;;;4.17;;
9465;SDS011;4771;48.726;9.006;2022-11-20T01:57:27;5.23;;;4.60;;
9465;SDS011;4771;48.726;9.006;2022-11-20T01:59:59;4.70;;;4.20;;
9465;SDS011;4771;48.726;9.006;2022-11-20T02:02:29;5.60;;;4.37;;
9465;SDS011;4771;48.726;9.006;2022-11-20T02:04:56;4.27;;;3.87;;
9465;SDS011;4771;48.726;9.006;2022-11-20T02:07:28;5.83;;;4.27;;
9465;SDS011;4771;48.726;9.006;2022-11-20T02:09:56;5.13;;;4.20;;
9465;SDS011;4771;48.726;9.006;2022-11-20T02:12:23;5.67;;;4.30;;
9465;SDS011;4771;48.726;9.006;2022-11-20T02:15:09;6.20;;;4.50;;
9465;SDS011;4771;48.726;9.006;2022-11-20T02:17:36;5.20;;;4.30;;
9465;SDS011;4771;48.726;9.006;2022-11-20T02:20:04;5.17;;;4.47;;
9465;SDS011;4771;48.726;9.006;2022-11-20T02:22:34;4.63;;;4.20;;
9465;SDS011;4771;48.726;9.006;2022-11-20T02:25:08;4.00;;;3.60;;
9465;SDS011;4771;48.726;9.006;2022-11-20T02:27:36;5.47;;;3.83;;
9465;SDS011;4771;48.726;9.006;2022-11-20T02:30:04;5.73;;;4.30;;
9465;SDS011;4771;48.726;9.006;2022-11-20T02:32:33;4.50;;;3.70;;
9465;SDS011;4771;48.726;9.006;2022-11-20T02:35:06;5.53;;;3.90;;
9465;SDS011;4771;48.726;9.006;2022-11-20T02:37:34;4.97;;;3.90;;
9465;SDS011;4771;48.726;9.006;2022-11-20T02:40:03;6.00;;;3.80;;
9465;SDS011;4771;48.726;9.006;2022-11-20T02:42:32;4.40;;;3.80;;
9465;SDS011;4771;48.726;9.006;2022-11-20T02:44:59;4.43;;;3.57;;
9465;SDS011;4771;48.726;9.006;2022-11-20T02:47:26;8.20;;;3.93;;
9465;SDS011;4771;48.726;9.006;2022-11-20T02:49:53;4.73;;;3.70;;
9465;SDS011;4771;48.726;9.006;2022-11-20T02:52:20;5.10;;;3.80;;
9465;SDS011;4771;48.726;9.006;2022-11-20T02:54:47;4.37;;;3.70;;
9465;SDS011;4771;48.726;9.006;2022-11-20T02:57:14;5.33;;;4.10;;
9465;SDS011;4771;48.726;9.006;2022-11-20T02:59:42;6.67;;;3.80;;
9465;SDS011;4771;48.726;9.006;2022-11-20T03:02:09;3.73;;;3.37;;
9465;SDS011;4771;48.726;9.006;2022-11-20T03:04:36;4.30;;;3.30;;
9465;SDS011;4771;48.726;9.006;2022-11-20T03:07:02;3.37;;;3.07;;
9465;SDS011;4771;48.726;9.006;2022-11-20T03:09:29;6.57;;;3.90;;
9465;SDS011;4771;48.726;9.006;2022-11-20T03:11:56;4.53;;;3.63;;
9465;SDS011;4771;48.726;9.006;2022-11-20T03:14:23;3.83;;;3.33;;
9465;SDS011;4771;48.726;9.006;2022-11-20T03:16:51;5.33;;;4.23;;
9465;SDS011;4771;48.726;9.006;2022-11-20T03:19:18;5.23;;;3.77;;
9465;SDS011;4771;48.726;9.006;2022-11-20T03:21:45;4.50;;;4.10;;
9465;SDS011;4771;48.726;9.006;2022-11-20T03:24:13;4.77;;;3.67;;
9465;SDS011;4771;48.726;9.006;2022-11-20T03:26:40;4.67;;;4.00;;
9465;SDS011;4771;48.726;9.006;2022-11-20T03:29:07;3.57;;;3.27;;
9465;SDS011;4771;48.726;9.006;2022-11-20T03:31:35;4.20;;;3.80;;
9465;SDS011;4771;48.726;9.006;2022-11-20T03:34:06;5.77;;;4.13;;
9465;SDS011;4771;48.726;9.006;2022-11-20T03:36:34;5.03;;;4.20;;
9465;SDS011;4771;48.726;9.006;2022-11-20T03:39:01;7.50;;;4.17;;
9465;SDS011;4771;48.726;9.006;2022-11-20T03:41:28;7.83;;;4.57;;
9465;SDS011;4771;48.726;9.006;2022-11-20T03:43:57;4.40;;;3.90;;
9465;SDS011;4771;48.726;9.006;2022-11-20T03:46:25;4.73;;;4.20;;
9465;SDS011;4771;48.726;9.006;2022-11-20T03:48:53;6.00;;;4.80;;
9465;SDS011;4771;48.726;9.006;2022-11-20T03:51:22;4.47;;;3.87;;
9465;SDS011;4771;48.726;9.006;2022-11-20T03:53:51;4.93;;;3.90;;
9465;SDS011;4771;48.726;9.006;2022-11-20T03:56:22;4.40;;;3.90;;
9465;SDS011;4771;48.726;9.006;2022-11-20T03:58:49;6.37;;;4.27;;
9465;SDS011;4771;48.726;9.006;2022-11-20T04:01:17;6.80;;;4.20;;
9465;SDS011;4771;48.726;9.006;2022-11-20T04:03:45;8.00;;;4.60;;
9465;SDS011;4771;48.726;9.006;2022-11-20T04:06:13;5.27;;;4.37;;
9465;SDS011;4771;48.726;9.006;2022-11-20T04:08:43;4.20;;;3.80;;
9465;SDS011;4771;48.726;9.006;2022-11-20T04:11:11;4.70;;;4.13;;
9465;SDS011;4771;48.726;9.006;2022-11-20T04:13:38;5.67;;;4.53;;
9465;SDS011;4771;48.726;9.006;2022-11-20T04:16:06;4.97;;;4.23;;
9465;SDS011;4771;48.726;9.006;2022-11-20T04:18:34;5.07;;;4.43;;
9465;SDS011;4771;48.726;9.006;2022-11-20T04:21:01;5.30;;;4.07;;
9465;SDS011;4771;48.726;9.006;2022-11-20T04:23:28;5.13;;;4.13;;
9465;SDS011;4771;48.726;9.006;2022-11-20T04:25:59;4.97;;;4.10;;
9465;SDS011;4771;48.726;9.006;2022-11-20T04:28:27;6.53;;;4.13;;
9465;SDS011;4771;48.726;9.006;2022-11-20T04:30:54;4.77;;;3.67;;
9465;SDS011;4771;48.726;9.006;2022-11-20T04:33:27;4.77;;;4.03;;
9465;SDS011;4771;48.726;9.006;2022-11-20T04:35:54;6.00;;;3.90;;
9465;SDS011;4771;48.726;9.006;2022-11-20T04:38:20;5.40;;;3.90;;
9465;SDS011;4771;48.726;9.006;2022-11-20T04:40:47;4.87;;;3.97;;
9465;SDS011;4771;48.726;9.006;2022-11-20T04:43:15;3.63;;;3.33;;
9465;SDS011;4771;48.726;9.006;2022-11-20T04:45:42;5.60;;;4.10;;
9465;SDS011;4771;48.726;9.006;2022-11-20T04:48:16;5.67;;;4.17;;
9465;SDS011;4771;48.726;9.006;2022-11-20T04:50:42;4.97;;;4.13;;
9465;SDS011;4771;48.726;9.006;2022-11-20T04:53:09;6.23;;;3.73;;
9465;SDS011;4771;48.726;9.006;2022-11-20T04:55:36;5.93;;;3.77;;
9465;SDS011;4771;48.726;9.006;2022-11-20T04:58:03;4.70;;;3.80;;
9465;SDS011;4771;48.726;9.006;2022-11-20T05:00:31;4.27;;;3.30;;
9465;SDS011;4771;48.726;9.006;2022-11-20T05:02:58;4.13;;;3.37;;
9465;SDS011;4771;48.726;9.006;2022-11-20T05:05:25;8.37;;;3.50;;
9465;SDS011;4771;48.726;9.006;2022-11-20T05:07:52;4.00;;;3.43;;
9465;SDS011;4771;48.726;9.006;2022-11-20T05:10:19;4.70;;;3.30;;
9465;SDS011;4771;48.726;9.006;2022-11-20T05:12:46;6.10;;;3.03;;
9465;SDS011;4771;48.726;9.006;2022-11-20T05:15:12;4.23;;;3.33;;
9465;SDS011;4771;48.726;9.006;2022-11-20T05:17:41;5.10;;;3.73;;
9465;SDS011;4771;48.726;9.006;2022-11-20T05:20:12;4.57;;;3.40;;
9465;SDS011;4771;48.726;9.006;2022-11-20T05:22:39;5.10;;;3.30;;
9465;SDS011;4771;48.726;9.006;2022-11-20T05:25:06;4.27;;;3.70;;
9465;SDS011;4771;48.726;9.006;2022-11-20T05:27:33;4.83;;;3.60;;
9465;SDS011;4771;48.726;9.006;2022-11-20T05:30:00;4.53;;;3.87;;
9465;SDS011;4771;48.726;9.006;2022-11-20T05:32:27;3.67;;;3.33;;
9465;SDS011;4771;48.726;9.006;2022-11-20T05:34:55;5.67;;;3.80;;
9465;SDS011;4771;48.726;9.006;2022-11-20T05:37:22;4.43;;;3.30;;
9465;SDS011;4771;48.726;9.006;2022-11-20T05:39:49;3.93;;;3.30;;
9465;SDS011;4771;48.726;9.006;2022-11-20T05:42:16;5.00;;;3.20;;
9465;SDS011;4771;48.726;9.006;2022-11-20T05:44:58;4.57;;;3.37;;
9465;SDS011;4771;48.726;9.006;2022-11-20T05:47:26;4.33;;;3.20;;
9465;SDS011;4771;48.726;9.006;2022-11-20T05:49:53;3.83;;;3.43;;
9465;SDS011;4771;48.726;9.006;2022-11-20T05:52:22;4.70;;;3.40;;
9465;SDS011;4771;48.726;9.006;2022-11-20T05:54:48;3.90;;;3.50;;
9465;SDS011;4771;48.726;9.006;2022-11-20T05:57:16;3.50;;;3.07;;
9465;SDS011;4771;48.726;9.006;2022-11-20T05:59:43;3.93;;;3.37;;
9465;SDS011;4771;48.726;9.006;2022-11-20T06:02:10;4.00;;;3.60;;
9465;SDS011;4771;48.726;9.006;2022-11-20T06:04:36;4.00;;;3.30;;
9465;SDS011;4771;48.726;9.006;2022-11-20T06:07:05;4.07;;;3.37;;
9465;SDS011;4771;48.726;9.006;2022-11-20T06:09:32;4.03;;;3.30;;
9465;SDS011;4771;48.726;9.006;2022-11-20T06:11:59;6.53;;;3.30;;
9465;SDS011;4771;48.726;9.006;2022-11-20T06:14:26;3.50;;;3.20;;
9465;SDS011;4771;48.726;9.006;2022-11-20T06:16:53;3.63;;;3.00;;
9465;SDS011;4771;48.726;9.006;2022-11-20T06:19:20;3.40;;;3.07;;
9465;SDS011;4771;48.726;9.006;2022-11-20T06:21:47;3.37;;;3.03;;
9465;SDS011;4771;48.726;9.006;2022-11-20T06:24:15;4.03;;;3.20;;
9465;SDS011;4771;48.726;9.006;2022-11-20T06:26:43;3.07;;;2.83;;
9465;SDS011;4771;48.726;9.006;2022-11-20T06:29:10;3.40;;;3.10;;
9465;SDS011;4771;48.726;9.006;2022-11-20T06:31:37;4.50;;;2.90;;
9465;SDS011;4771;48.726;9.006;2022-11-20T06:34:04;3.60;;;2.93;;
9465;SDS011;4771;48.726;9.006;2022-11-20T06:36:31;6.57;;;2.57;;
9465;SDS011;4771;48.726;9.006;2022-11-20T06:38:59;5.33;;;2.73;;
9465;SDS011;4771;48.726;9.006;2022-11-20T06:41:27;4.03;;;2.90;;
9465;SDS011;4771;48.726;9.006;2022-11-20T06:43:54;3.93;;;2.60;;
9465;SDS011;4771;48.726;9.006;2022-11-20T06:46:21;3.77;;;2.97;;
9465;SDS011;4771;48.726;9.006;2022-11-20T06:48:48;6.03;;;3.30;;
9465;SDS011;4771;48.726;9.006;2022-11-20T06:51:16;5.43;;;3.23;;
9465;SDS011;4771;48.726;9.006;2022-11-20T06:53:43;3.93;;;3.03;;
9465;SDS011;4771;48.726;9.006;2022-11-20T06:56:10;3.40;;;2.60;;
9465;SDS011;4771;48.726;9.006;2022-11-20T06:58:38;4.70;;;2.60;;
9465;SDS011;4771;48.726;9.006;2022-11-20T07:01:06;3.33;;;2.63;;
9465;SDS011;4771;48.726;9.006;2022-11-20T07:03:34;4.53;;;2.70;;
9465;SDS011;4771;48.726;9.006;2022-11-20T07:06:01;3.17;;;2.80;;
9465;SDS011;4771;48.726;9.006;2022-11-20T07:08:29;3.57;;;2.73;;
9465;SDS011;4771;48.726;9.006;2022-11-20T07:10:57;4.03;;;3.33;;
9465;SDS011;4771;48.726;9.006;2022-11-20T07:13:24;3.73;;;2.87;;
9465;SDS011;4771;48.726;9.006;2022-11-20T07:15:53;5.77;;;2.70;;
9465;SDS011;4771;48.726;9.006;2022-11-20T07:18:20;3.00;;;2.70;;
9465;SDS011;4771;48.726;9.006;2022-11-20T07:20:47;4.83;;;2.60;;
9465;SDS011;4771;48.726;9.006;2022-11-20T07:23:13;3.23;;;2.67;;
9465;SDS011;4771;48.726;9.006;2022-11-20T07:25:40;4.80;;;3.33;;
9465;SDS011;4771;48.726;9.006;2022-11-20T07:28:07;3.77;;;2.60;;
9465;SDS011;4771;48.726;9.006;2022-11-20T07:30:35;3.50;;;2.73;;
9465;SDS011;4771;48.726;9.006;2022-11-20T07:33:04;3.13;;;2.70;;
9465;SDS011;4771;48.726;9.006;2022-11-20T07:35:31;3.33;;;2.93;;
9465;SDS011;4771;48.726;9.006;2022-11-20T07:37:58;3.33;;;2.80;;
9465;SDS011;4771;48.726;9.006;2022-11-20T07:40:24;2.97;;;2.67;;
9465;SDS011;4771;48.726;9.006;2022-11-20T07:42:52;4.20;;;2.70;;
9465;SDS011;4771;48.726;9.006;2022-11-20T07:45:21;2.90;;;2.60;;
9465;SDS011;4771;48.726;9.006;2022-11-20T07:47:49;5.10;;;2.90;;
9465;SDS011;4771;48.726;9.006;2022-11-20T07:50:18;3.77;;;2.50;;
9465;SDS011;4771;48.726;9.006;2022-11-20T07:52:46;4.33;;;3.00;;
9465;SDS011;4771;48.726;9.006;2022-11-20T07:55:13;3.50;;;2.77;;
9465;SDS011;4771;48.726;9.006;2022-11-20T07:57:40;3.20;;;2.90;;
9465;SDS011;4771;48.726;9.006;2022-11-20T08:00:07;3.77;;;2.87;;
9465;SDS011;4771;48.726;9.006;2022-11-20T08:02:36;5.90;;;2.90;;
9465;SDS011;4771;48.726;9.006;2022-11-20T08:05:04;2.67;;;2.47;;
9465;SDS011;4771;48.726;9.006;2022-11-20T08:07:36;3.60;;;2.73;;
9465;SDS011;4771;48.726;9.006;2022-11-20T08:10:04;3.30;;;2.50;;
9465;SDS011;4771;48.726;9.006;2022-11-20T08:12:31;2.67;;;2.13;;
9465;SDS011;4771;48.726;9.006;2022-11-20T08:15:16;3.43;;;2.23;;
9465;SDS011;4771;48.726;9.006;2022-11-20T08:17:42;2.17;;;1.90;;
9465;SDS011;4771;48.726;9.006;2022-11-20T08:20:09;2.30;;;2.10;;
9465;SDS011;4771;48.726;9.006;2022-11-20T08:22:38;2.50;;;1.73;;
9465;SDS011;4771;48.726;9.006;2022-11-20T08:25:05;3.23;;;1.90;;
9465;SDS011;4771;48.726;9.006;2022-11-20T08:27:32;2.20;;;2.00;;
9465;SDS011;4771;48.726;9.006;2022-11-20T08:29:59;2.33;;;2.00;;
9465;SDS011;4771;48.726;9.006;2022-11-20T08:32:26;3.40;;;1.87;;
9465;SDS011;4771;48.726;9.006;2022-11-20T08:34:53;4.00;;;1.97;;
9465;SDS011;4771;48.726;9.006;2022-11-20T08:37:19;2.37;;;1.93;;
9465;SDS011;4771;48.726;9.006;2022-11-20T08:39:48;1.93;;;1.70;;
9465;SDS011;4771;48.726;9.006;2022-11-20T08:42:14;1.63;;;1.40;;
9465;SDS011;4771;48.726;9.006;2022-11-20T08:44:41;1.60;;;1.50;;
9465;SDS011;4771;48.726;9.006;2022-11-20T08:47:08;2.80;;;1.70;;
9465;SDS011;4771;48.726;9.006;2022-11-20T08:49:35;1.67;;;1.53;;
9465;SDS011;4771;48.726;9.006;2022-11-20T08:52:02;1.43;;;1.33;;
9465;SDS011;4771;48.726;9.006;2022-11-20T08:54:29;1.70;;;1.57;;
9465;SDS011;4771;48.726;9.006;2022-11-20T08:56:57;1.70;;;1.60;;
9465;SDS011;4771;48.726;9.006;2022-11-20T08:59:24;1.50;;;1.30;;
9465;SDS011;4771;48.726;9.006;2022-11-20T09:01:51;1.50;;;1.37;;
9465;SDS011;4771;48.726;9.006;2022-11-20T09:04:17;2.10;;;1.50;;
9465;SDS011;4771;48.726;9.006;2022-11-20T09:06:44;1.93;;;1.30;;
9465;SDS011;4771;48.726;9.006;2022-11-20T09:09:15;1.87;;;1.40;;
9465;SDS011;4771;48.726;9.006;2022-11-20T09:11:42;1.63;;;1.33;;
9465;SDS011;4771;48.726;9.006;2022-11-20T09:14:10;1.47;;;1.13;;
9465;SDS011;4771;48.726;9.006;2022-11-20T09:16:37;1.33;;;1.13;;
9465;SDS011;4771;48.726;9.006;2022-11-20T09:19:04;1.07;;;1.00;;
9465;SDS011;4771;48.726;9.006;2022-11-20T09:21:31;1.67;;;1.10;;
9465;SDS011;4771;48.726;9.006;2022-11-20T09:23:58;1.30;;;1.20;;
9465;SDS011;4771;48.726;9.006;2022-11-20T09:26:25;1.27;;;1.00;;
9465;SDS011;4771;48.726;9.006;2022-11-20T09:28:52;1.20;;;1.10;;
9465;SDS011;4771;48.726;9.006;2022-11-20T09:31:21;1.10;;;1.00;;
9465;SDS011;4771;48.726;9.006;2022-11-20T09:33:50;0.90;;;0.90;;
9465;SDS011;4771;48.726;9.006;2022-11-20T09:36:17;1.10;;;1.00;;
9465;SDS011;4771;48.726;9.006;2022-11-20T09:38:44;1.00;;;1.00;;
9465;SDS011;4771;48.726;9.006;2022-11-20T09:41:18;0.70;;;0.70;;
9465;SDS011;4771;48.726;9.006;2022-11-20T09:44:07;5.00;;;1.00;;
9465;SDS011;4771;48.726;9.006;2022-11-20T09:46:47;2.17;;;1.10;;
9465;SDS011;4771;48.726;9.006;2022-11-20T09:49:22;0.87;;;0.87;;
9465;SDS011;4771;48.726;9.006;2022-11-20T09:51:57;2.03;;;1.03;;
9465;SDS011;4771;48.726;9.006;2022-11-20T09:54:26;1.20;;;1.10;;
9465;SDS011;4771;48.726;9.006;2022-11-20T09:56:58;1.77;;;1.10;;
9465;SDS011;4771;48.726;9.006;2022-11-20T09:59:32;1.00;;;1.00;;
9465;SDS011;4771;48.726;9.006;2022-11-20T10:02:08;1.70;;;1.27;;
9465;SDS011;4771;48.726;9.006;2022-11-20T10:04:43;1.87;;;1.00;;
9465;SDS011;4771;48.726;9.006;2022-11-20T10:07:15;1.33;;;1.03;;
9465;SDS011;4771;48.726;9.006;2022-11-20T10:09:49;2.23;;;1.00;;
9465;SDS011;4771;48.726;9.006;2022-11-20T10:12:19;1.37;;;1.13;;
9465;SDS011;4771;48.726;9.006;2022-11-20T10:14:56;1.10;;;1.00;;
9465;SDS011;4771;48.726;9.006;2022-11-20T10:17:36;2.07;;;1.00;;
9465;SDS011;4771;48.726;9.006;2022-11-20T10:20:19;1.67;;;1.20;;
9465;SDS011;4771;48.726;9.006;2022-11-20T10:22:56;1.13;;;1.03;;
9465;SDS011;4771;48.726;9.006;2022-11-20T10:25:37;2.17;;;1.20;;
9465;SDS011;4771;48.726;9.006;2022-11-20T10:31:03;1.40;;;1.30;;
9465;SDS011;4771;48.726;9.006;2022-11-20T10:33:38;1.13;;;1.03;;
9465;SDS011;4771;48.726;9.006;2022-11-20T10:36:09;2.07;;;1.20;;
9465;SDS011;4771;48.726;9.006;2022-11-20T10:38:44;1.90;;;1.30;;
9465;SDS011;4771;48.726;9.006;2022-11-20T10:41:17;1.73;;;1.40;;
9465;SDS011;4771;48.726;9.006;2022-11-20T10:43:53;1.50;;;1.20;;
9465;SDS011;4771;48.726;9.006;2022-11-20T10:46:26;1.33;;;1.23;;
9465;SDS011;4771;48.726;9.006;2022-11-20T10:49:03;1.60;;;1.20;;
9465;SDS011;4771;48.726;9.006;2022-11-20T10:51:39;1.33;;;1.20;;
9465;SDS011;4771;48.726;9.006;2022-11-20T10:54:15;1.27;;;1.17;;
9465;SDS011;4771;48.726;9.006;2022-11-20T10:56:49;1.30;;;1.20;;
9465;SDS011;4771;48.726;9.006;2022-11-20T10:59:27;2.40;;;1.37;;
9465;SDS011;4771;48.726;9.006;2022-11-20T11:02:16;1.67;;;1.50;;
9465;SDS011;4771;48.726;9.006;2022-11-20T11:04:47;1.60;;;1.33;;
9465;SDS011;4771;48.726;9.006;2022-11-20T11:07:16;1.90;;;1.40;;
9465;SDS011;4771;48.726;9.006;2022-11-20T11:09:47;1.40;;;1.30;;
9465;SDS011;4771;48.726;9.006;2022-11-20T11:12:16;2.00;;;1.63;;
9465;SDS011;4771;48.726;9.006;2022-11-20T11:14:44;3.13;;;2.20;;
9465;SDS011;4771;48.726;9.006;2022-11-20T11:17:20;3.77;;;1.80;;
9465;SDS011;4771;48.726;9.006;2022-11-20T11:19:59;1.73;;;1.63;;
9465;SDS011;4771;48.726;9.006;2022-11-20T11:22:27;2.63;;;1.60;;
9465;SDS011;4771;48.726;9.006;2022-11-20T11:24:55;2.77;;;1.43;;
9465;SDS011;4771;48.726;9.006;2022-11-20T11:27:22;2.20;;;1.47;;
9465;SDS011;4771;48.726;9.006;2022-11-20T11:29:49;2.33;;;1.50;;
9465;SDS011;4771;48.726;9.006;2022-11-20T11:32:18;2.57;;;1.70;;
9465;SDS011;4771;48.726;9.006;2022-11-20T11:34:59;2.43;;;1.50;;
9465;SDS011;4771;48.726;9.006;2022-11-20T11:37:27;4.60;;;2.00;;
9465;SDS011;4771;48.726;9.006;2022-11-20T11:40:00;2.77;;;1.50;;
9465;SDS011;4771;48.726;9.006;2022-11-20T11:42:28;1.92;;;1.35;;
9465;SDS011;4771;48.726;9.006;2022-11-20T11:44:56;3.93;;;1.30;;
9465;SDS011;4771;48.726;9.006;2022-11-20T11:47:31;3.07;;;1.13;;
9465;SDS011;4771;48.726;9.006;2022-11-20T11:50:16;2.10;;;1.13;;
9465;SDS011;4771;48.726;9.006;2022-11-20T11:52:45;1.77;;;1.10;;
9465;SDS011;4771;48.726;9.006;2022-11-20T11:55:28;1.43;;;1.20;;
9465;SDS011;4771;48.726;9.006;2022-11-20T11:58:00;2.45;;;1.23;;
9465;SDS011;4771;48.726;9.006;2022-11-20T12:00:49;3.30;;;1.10;;
9465;SDS011;4771;48.726;9.006;2022-11-20T12:03:24;2.03;;;1.13;;
9465;SDS011;4771;48.726;9.006;2022-11-20T12:05:57;2.03;;;1.40;;
9465;SDS011;4771;48.726;9.006;2022-11-20T12:08:29;2.70;;;1.40;;
9465;SDS011;4771;48.726;9.006;2022-11-20T12:11:05;1.73;;;1.43;;
9465;SDS011;4771;48.726;9.006;2022-11-20T12:13:42;3.07;;;1.30;;
9465;SDS011;4771;48.726;9.006;2022-11-20T12:16:14;1.97;;;1.03;;
9465;SDS011;4771;48.726;9.006;2022-11-20T12:18:45;3.07;;;1.30;;
9465;SDS011;4771;48.726;9.006;2022-11-20T12:21:20;2.97;;;1.30;;
9465;SDS011;4771;48.726;9.006;2022-11-20T12:24:06;2.07;;;1.10;;
9465;SDS011;4771;48.726;9.006;2022-11-20T12:26:55;1.93;;;1.20;;
9465;SDS011;4771;48.726;9.006;2022-11-20T12:29:36;2.13;;;1.10;;
9465;SDS011;4771;48.726;9.006;2022-11-20T12:32:25;2.23;;;1.27;;
9465;SDS011;4771;48.726;9.006;2022-11-20T12:35:22;2.73;;;1.30;;
9465;SDS011;4771;48.726;9.006;2022-11-20T12:38:20;2.77;;;1.40;;
9465;SDS011;4771;48.726;9.006;2022-11-20T12:41:00;1.60;;;0.97;;
9465;SDS011;4771;48.726;9.006;2022-11-20T12:43:37;4.70;;;1.77;;
9465;SDS011;4771;48.726;9.006;2022-11-20T12:46:28;3.00;;;1.20;;
9465;SDS011;4771;48.726;9.006;2022-11-20T12:49:12;4.03;;;1.60;;
9465;SDS011;4771;48.726;9.006;2022-11-20T12:52:02;2.43;;;1.27;;
9465;SDS011;4771;48.726;9.006;2022-11-20T12:54:50;1.53;;;1.07;;
9465;SDS011;4771;48.726;9.006;2022-11-20T12:57:34;3.13;;;1.20;;
9465;SDS011;4771;48.726;9.006;2022-11-20T13:00:11;3.03;;;1.30;;
9465;SDS011;4771;48.726;9.006;2022-11-20T13:02:44;1.80;;;1.00;;
9465;SDS011;4771;48.726;9.006;2022-11-20T13:05:27;2.90;;;1.20;;
9465;SDS011;4771;48.726;9.006;2022-11-20T13:08:03;3.23;;;1.10;;
9465;SDS011;4771;48.726;9.006;2022-11-20T13:10:37;1.53;;;1.10;;
9465;SDS011;4771;48.726;9.006;2022-11-20T13:13:12;4.70;;;1.10;;
9465;SDS011;4771;48.726;9.006;2022-11-20T13:15:45;1.70;;;1.20;;
9465;SDS011;4771;48.726;9.006;2022-11-20T13:18:20;4.23;;;1.30;;
9465;SDS011;4771;48.726;9.006;2022-11-20T13:20:47;2.23;;;1.17;;
9465;SDS011;4771;48.726;9.006;2022-11-20T13:23:24;2.27;;;1.50;;
9465;SDS011;4771;48.726;9.006;2022-11-20T13:26:03;4.67;;;1.23;;
9465;SDS011;4771;48.726;9.006;2022-11-20T13:28:32;1.60;;;1.20;;
9465;SDS011;4771;48.726;9.006;2022-11-20T13:30:59;1.23;;;1.13;;
9465;SDS011;4771;48.726;9.006;2022-11-20T13:33:28;1.17;;;1.00;;
9465;SDS011;4771;48.726;9.006;2022-11-20T13:35:58;2.57;;;1.20;;
9465;SDS011;4771;48.726;9.006;2022-11-20T13:38:26;3.17;;;1.40;;
9465;SDS011;4771;48.726;9.006;2022-11-20T13:40:55;2.10;;;1.30;;
9465;SDS011;4771;48.726;9.006;2022-11-20T13:43:28;1.43;;;1.20;;
9465;SDS011;4771;48.726;9.006;2022-11-20T13:46:01;2.03;;;1.33;;
9465;SDS011;4771;48.726;9.006;2022-11-20T13:48:30;2.30;;;1.63;;
9465;SDS011;4771;48.726;9.006;2022-11-20T13:51:04;1.63;;;1.30;;
9465;SDS011;4771;48.726;9.006;2022-11-20T13:53:51;4.87;;;1.60;;
9465;SDS011;4771;48.726;9.006;2022-11-20T13:56:46;1.73;;;1.40;;
9465;SDS011;4771;48.726;9.006;2022-11-20T13:59:27;2.70;;;1.40;;
9465;SDS011;4771;48.726;9.006;2022-11-20T14:02:09;2.73;;;1.60;;
9465;SDS011;4771;48.726;9.006;2022-11-20T14:04:38;4.80;;;1.80;;
9465;SDS011;4771;48.726;9.006;2022-11-20T14:07:09;2.97;;;2.20;;
9465;SDS011;4771;48.726;9.006;2022-11-20T14:09:36;2.10;;;1.60;;
9465;SDS011;4771;48.726;9.006;2022-11-20T14:12:04;1.93;;;1.43;;
9465;SDS011;4771;48.726;9.006;2022-11-20T14:14:49;1.83;;;1.60;;
9465;SDS011;4771;48.726;9.006;2022-11-20T14:17:18;2.17;;;1.47;;
9465;SDS011;4771;48.726;9.006;2022-11-20T14:19:47;2.33;;;1.40;;
9465;SDS011;4771;48.726;9.006;2022-11-20T14:22:19;3.13;;;1.30;;
9465;SDS011;4771;48.726;9.006;2022-11-20T14:24:47;3.87;;;1.70;;
9465;SDS011;4771;48.726;9.006;2022-11-20T14:27:16;3.47;;;1.80;;
9465;SDS011;4771;48.726;9.006;2022-11-20T14:29:44;2.63;;;1.30;;
9465;SDS011;4771;48.726;9.006;2022-11-20T14:32:15;2.60;;;1.57;;
9465;SDS011;4771;48.726;9.006;2022-11-20T14:34:43;4.37;;;1.80;;
9465;SDS011;4771;48.726;9.006;2022-11-20T14:37:12;2.57;;;1.50;;
9465;SDS011;4771;48.726;9.006;2022-11-20T14:39:47;3.10;;;1.67;;
9465;SDS011;4771;48.726;9.006;2022-11-20T14:42:17;2.17;;;1.50;;
9465;SDS011;4771;48.726;9.006;2022-11-20T14:44:45;2.67;;;1.93;;
9465;SDS011;4771;48.726;9.006;2022-11-20T14:47:17;5.07;;;1.80;;
9465;SDS011;4771;48.726;9.006;2022-11-20T14:49:47;5.43;;;2.03;;
9465;SDS011;4771;48.726;9.006;2022-11-20T14:52:16;5.07;;;2.07;;
9465;SDS011;4771;48.726;9.006;2022-11-20T14:54:44;4.23;;;1.90;;
9465;SDS011;4771;48.726;9.006;2022-11-20T14:57:25;4.77;;;3.67;;
9465;SDS011;4771;48.726;9.006;2022-11-20T15:00:04;3.83;;;1.80;;
9465;SDS011;4771;48.726;9.006;2022-11-20T15:02:38;3.97;;;1.80;;
9465;SDS011;4771;48.726;9.006;2022-11-20T15:05:05;4.20;;;2.10;;
9465;SDS011;4771;48.726;9.006;2022-11-20T15:07:33;3.67;;;2.13;;
9465;SDS011;4771;48.726;9.006;2022-11-20T15:10:05;4.70;;;2.30;;
9465;SDS011;4771;48.726;9.006;2022-11-20T15:12:34;3.33;;;2.10;;
9465;SDS011;4771;48.726;9.006;2022-11-20T15:15:05;2.33;;;2.03;;
9465;SDS011;4771;48.726;9.006;2022-11-20T15:17:37;3.97;;;1.80;;
9465;SDS011;4771;48.726;9.006;2022-11-20T15:20:09;2.27;;;1.80;;
9465;SDS011;4771;48.726;9.006;2022-11-20T15:22:40;4.80;;;2.27;;
9465;SDS011;4771;48.726;9.006;2022-11-20T15:25:11;2.87;;;1.87;;
9465;SDS011;4771;48.726;9.006;2022-11-20T15:27:39;2.37;;;1.90;;
9465;SDS011;4771;48.726;9.006;2022-11-20T15:30:11;4.10;;;2.20;;
9465;SDS011;4771;48.726;9.006;2022-11-20T15:32:41;4.57;;;2.00;;
9465;SDS011;4771;48.726;9.006;2022-11-20T15:35:08;3.83;;;1.97;;
9465;SDS011;4771;48.726;9.006;2022-11-20T15:37:35;2.47;;;1.90;;